Time;durP1;ratioP1;P1;durP2;ratioP2;P2;SDS_P1;SDS_P2;PMS_P1;PMS_P2;Temp;Humidity;BMP_temperature;BMP_pressure;BME280_temperature;BME280_humidity;BME280_pressure;Samples;Min_cycle;Max_cycle;Signal;HPM_P1;HPM_P2
2024/03/09 00:00:39;;;;;;;0.10;0.10;;;;;;;8.90;58.71;99609.97;7369647;19;20014;-61
2024/03/09 00:03:06;;;;;;;0.10;0.10;;;;;;;8.88;58.65;99604.00;7371265;19;20078;-61
2024/03/09 00:05:32;;;;;;;0.10;0.10;;;;;;;8.86;59.02;99597.97;7371812;19;20003;-61
2024/03/09 00:08:01;;;;;;;0.00;0.00;;;;;;;8.86;58.59;99587.53;7365092;19;20003;-62
2024/03/09 00:10:27;;;;;;;0.00;0.00;;;;;;;8.84;58.78;99579.78;7370984;19;20572;-63
2024/03/09 00:12:53;;;;;;;0.10;0.10;;;;;;;8.84;58.73;99584.16;7369171;19;20762;-61
2024/03/09 00:15:21;;;;;;;0.10;0.10;;;;;;;8.83;59.02;99583.31;7366377;19;20005;-62
2024/03/09 00:17:49;;;;;;;0.10;0.10;;;;;;;8.84;58.73;99584.16;7371759;19;20461;-62
2024/03/09 00:20:15;;;;;;;0.10;0.10;;;;;;;8.83;58.77;99572.06;7362418;19;20005;-62
2024/03/09 00:22:45;;;;;;;0.13;0.13;;;;;;;8.84;58.89;99573.75;7369711;19;20482;-61
2024/03/09 00:25:10;;;;;;;0.10;0.10;;;;;;;8.76;58.92;99568.78;7370574;19;20006;-62
2024/03/09 00:27:38;;;;;;;0.10;0.10;;;;;;;8.80;58.64;99567.78;7365663;19;20010;-61
2024/03/09 00:30:18;;;;;;;0.10;0.10;;;;;;;8.75;58.48;99558.44;7364724;19;20097;-62
2024/03/09 00:32:45;;;;;;;0.10;0.10;;;;;;;8.80;59.02;99556.53;7369700;19;20422;-61
2024/03/09 00:35:10;;;;;;;0.10;0.10;;;;;;;8.80;58.90;99543.50;7367313;19;20010;-61
2024/03/09 00:37:36;;;;;;;0.10;0.10;;;;;;;8.78;58.80;99553.13;7370390;19;20007;-62
2024/03/09 00:40:04;;;;;;;0.10;0.10;;;;;;;8.80;58.79;99551.31;7367318;19;20457;-65
2024/03/09 00:42:33;;;;;;;0.10;0.10;;;;;;;8.79;58.62;99549.63;7367364;19;20029;-61
2024/03/09 00:45:05;;;;;;;0.13;0.13;;;;;;;8.79;58.76;99540.06;7358282;19;20030;-61
2024/03/09 00:47:35;;;;;;;0.10;0.10;;;;;;;8.80;58.76;99540.91;7367950;19;20003;-63
2024/03/09 00:50:07;;;;;;;0.10;0.10;;;;;;;8.81;59.14;99542.59;7368454;19;20024;-60
2024/03/09 00:52:33;;;;;;;0.10;0.10;;;;;;;8.80;58.65;99540.91;7369911;19;19998;-61
2024/03/09 00:54:59;;;;;;;0.10;0.10;;;;;;;8.77;58.67;99530.63;7369345;19;20093;-61
2024/03/09 00:57:25;;;;;;;0.10;0.10;;;;;;;8.80;58.44;99530.50;7363149;19;20013;-61
2024/03/09 00:59:52;;;;;;;0.10;0.10;;;;;;;8.69;59.19;99523.06;7369391;19;20738;-62
2024/03/09 01:02:18;;;;;;;0.10;0.10;;;;;;;8.70;58.94;99514.34;7360548;19;20010;-62
2024/03/09 01:04:45;;;;;;;0.05;0.05;;;;;;;8.80;58.49;99531.34;7368564;19;20018;-61
2024/03/09 01:07:10;;;;;;;0.10;0.10;;;;;;;8.79;58.87;99528.78;7368148;19;20002;-61
2024/03/09 01:09:36;;;;;;;0.10;0.10;;;;;;;8.79;58.86;99523.59;7367951;19;20795;-61
2024/03/09 01:12:02;;;;;;;0.10;0.10;;;;;;;8.68;59.19;99504.91;7368545;19;20569;-62
2024/03/09 01:14:28;;;;;;;0.10;0.10;;;;;;;8.79;58.59;99515.78;7366114;19;20005;-61
2024/03/09 01:16:53;;;;;;;0.10;0.10;;;;;;;8.80;59.15;99520.09;7364750;19;20580;-62
2024/03/09 01:19:18;;;;;;;0.10;0.10;;;;;;;8.79;59.27;99513.19;7368729;19;20023;-61
2024/03/09 01:21:46;;;;;;;0.10;0.10;;;;;;;8.80;59.15;99510.50;7365513;19;20097;-62
2024/03/09 01:24:12;;;;;;;0.10;0.10;;;;;;;8.75;58.87;99496.81;7369009;19;20007;-61
2024/03/09 01:26:37;;;;;;;0.10;0.10;;;;;;;8.80;59.17;99504.47;7371300;19;20007;-62
2024/03/09 01:29:03;;;;;;;0.10;0.10;;;;;;;8.80;59.30;99505.31;7368224;19;20245;-62
2024/03/09 01:31:28;;;;;;;0.10;0.10;;;;;;;8.79;58.80;99502.78;7369748;19;20379;-61
2024/03/09 01:33:59;;;;;;;0.10;0.10;;;;;;;8.81;58.76;99500.94;7365321;19;20030;-61
2024/03/09 01:36:24;;;;;;;0.10;0.10;;;;;;;8.78;58.70;99491.50;7367390;19;20633;-62
2024/03/09 01:38:50;;;;;;;0.10;0.10;;;;;;;8.77;58.95;99483.75;7369140;19;20082;-61
2024/03/09 01:41:15;;;;;;;0.10;0.10;;;;;;;8.77;58.81;99483.75;7366746;19;20457;-62
2024/03/09 01:43:41;;;;;;;0.05;0.05;;;;;;;8.71;58.92;99473.53;7368329;19;20002;-65
2024/03/09 01:46:10;;;;;;;0.00;0.00;;;;;;;8.76;59.05;99476.84;7367351;19;20024;-61
2024/03/09 01:48:39;;;;;;;0.10;0.10;;;;;;;8.75;59.11;99469.94;7368229;19;20606;-61
2024/03/09 01:51:05;;;;;;;0.10;0.10;;;;;;;8.75;59.12;99470.78;7367092;19;20033;-62
2024/03/09 01:53:31;;;;;;;0.10;0.10;;;;;;;8.76;59.11;99472.47;7368178;19;20958;-62
2024/03/09 01:55:59;;;;;;;0.10;0.10;;;;;;;8.75;59.06;99469.94;7367136;19;20754;-61
2024/03/09 01:58:25;;;;;;;;;;;;;;;8.79;59.17;99456.75;7362765;19;20804;-61
2024/03/09 02:00:56;;;;;;;0.00;0.00;;;;;;;8.77;59.13;99448.16;7364111;19;19986;-62
2024/03/09 02:03:24;;;;;;;0.10;0.10;;;;;;;8.76;59.22;99456.00;7369506;19;20003;-62
2024/03/09 02:05:54;;;;;;;0.10;0.10;;;;;;;8.68;58.94;99445.03;7365511;19;20003;-61
2024/03/09 02:08:20;;;;;;;0.10;0.10;;;;;;;8.71;59.60;99443.16;7364512;19;20021;-61
2024/03/09 02:10:47;;;;;;;0.10;0.10;;;;;;;8.72;59.48;99444.88;7363810;19;20010;-62
2024/03/09 02:13:12;;;;;;;0.10;0.10;;;;;;;8.70;59.60;99430.22;7370103;19;20018;-61
2024/03/09 02:15:38;;;;;;;0.10;0.10;;;;;;;8.69;59.63;99428.50;7363732;19;20848;-62
2024/03/09 02:18:06;;;;;;;0.10;0.10;;;;;;;8.73;59.77;99432.72;7367367;19;20673;-62
2024/03/09 02:20:31;;;;;;;0.10;0.10;;;;;;;8.72;59.58;99428.41;7358862;19;21152;-62
2024/03/09 02:22:59;;;;;;;0.10;0.10;;;;;;;8.68;59.81;99411.22;7366154;19;20130;-61
2024/03/09 02:25:28;;;;;;;0.10;0.10;;;;;;;8.64;59.77;99407.00;7366726;19;20798;-61
2024/03/09 02:27:53;;;;;;;0.10;0.10;;;;;;;8.73;59.94;99414.50;7365578;19;20078;-61
2024/03/09 02:30:20;;;;;;;0.10;0.10;;;;;;;8.72;60.17;99408.44;7367637;19;20479;-60
2024/03/09 02:32:45;;;;;;;0.10;0.10;;;;;;;8.71;60.04;99398.91;7363640;19;20468;-62
2024/03/09 02:35:12;;;;;;;0.10;0.10;;;;;;;8.75;60.53;99402.25;7365681;19;20002;-61
2024/03/09 02:37:37;;;;;;;0.10;0.10;;;;;;;8.75;60.41;99397.06;7366674;19;20096;-61
2024/03/09 02:40:04;;;;;;;0.10;0.10;;;;;;;8.76;60.49;99393.53;7365226;19;20426;-62
2024/03/09 02:42:32;;;;;;;0.10;0.10;;;;;;;8.77;60.85;99390.06;7364430;19;20274;-62
2024/03/09 02:44:57;;;;;;;;;;;;;;;8.80;59.85;99390.78;7366732;19;20006;-61
2024/03/09 02:47:22;;;;;;;0.10;0.10;;;;;;;8.77;60.62;99369.25;7370657;19;19919;-62
2024/03/09 02:49:49;;;;;;;0.10;0.10;;;;;;;8.77;60.90;99364.88;7366746;19;20001;-61
2024/03/09 02:52:15;;;;;;;0.05;0.05;;;;;;;8.77;60.66;99364.03;7363734;19;20749;-61
2024/03/09 02:54:40;;;;;;;0.10;0.10;;;;;;;8.76;61.30;99367.53;7359952;19;20006;-62
2024/03/09 02:57:08;;;;;;;0.10;0.10;;;;;;;8.75;61.06;99364.06;7366754;19;20006;-61
2024/03/09 02:59:35;;;;;;;0.10;0.10;;;;;;;8.76;61.39;99367.53;7362390;19;20011;-61
2024/03/09 03:02:14;;;;;;;0.10;0.10;;;;;;;8.76;61.30;99359.72;7362506;19;20804;-62
2024/03/09 03:04:40;;;;;;;0.10;0.10;;;;;;;8.75;61.54;99358.88;7366124;19;20877;-62
2024/03/09 03:07:08;;;;;;;0.10;0.10;;;;;;;8.71;61.29;99359.88;7364940;19;20086;-61
2024/03/09 03:09:34;;;;;;;0.10;0.10;;;;;;;8.75;61.77;99365.81;7365622;19;20617;-62
2024/03/09 03:12:00;;;;;;;0.10;0.10;;;;;;;8.75;61.47;99358.00;7366356;19;20042;-61
2024/03/09 03:14:25;;;;;;;0.10;0.10;;;;;;;8.77;61.96;99353.63;7365194;19;20028;-61
2024/03/09 03:16:54;;;;;;;0.10;0.10;;;;;;;8.76;61.80;99351.91;7364311;19;20438;-62
2024/03/09 03:19:19;;;;;;;0.00;0.00;;;;;;;8.76;61.59;99344.09;7360697;19;20740;-62
2024/03/09 03:21:45;;;;;;;0.10;0.10;;;;;;;8.76;61.84;99346.69;7360830;19;20002;-61
2024/03/09 03:24:10;;;;;;;0.10;0.10;;;;;;;8.78;61.66;99342.31;7372016;19;20101;-62
2024/03/09 03:26:36;;;;;;;0.10;0.10;;;;;;;8.78;61.52;99347.50;7366878;19;20002;-61
2024/03/09 03:29:01;;;;;;;0.10;0.10;;;;;;;8.62;61.57;99307.31;7375074;19;20031;-61
2024/03/09 03:31:28;;;;;;;0.10;0.10;;;;;;;8.79;61.72;99336.19;7370481;19;20014;-62
2024/03/09 03:33:56;;;;;;;0.10;0.10;;;;;;;8.78;61.69;99327.53;7371335;19;20010;-62
2024/03/09 03:36:23;;;;;;;0.10;0.10;;;;;;;8.78;62.14;99330.13;7370909;19;19994;-63
2024/03/09 03:38:49;;;;;;;0.10;0.10;;;;;;;8.78;62.13;99316.28;7370444;19;20369;-61
2024/03/09 03:41:18;;;;;;;0.10;0.10;;;;;;;8.78;62.19;99298.06;7370689;19;19999;-61
2024/03/09 03:43:44;;;;;;;0.10;0.10;;;;;;;8.79;61.81;99310.16;7374299;19;20332;-62
2024/03/09 03:46:12;;;;;;;0.10;0.10;;;;;;;8.79;62.28;99315.38;7369328;19;20002;-62
2024/03/09 03:48:40;;;;;;;0.10;0.10;;;;;;;8.79;62.05;99299.75;7371752;19;20002;-61
2024/03/09 03:51:07;;;;;;;0.10;0.10;;;;;;;8.77;62.19;99302.41;7369014;19;20042;-62
2024/03/09 03:53:33;;;;;;;0.10;0.10;;;;;;;8.78;62.19;99308.47;7372892;19;20013;-61
2024/03/09 03:55:59;;;;;;;0.10;0.10;;;;;;;8.78;62.22;99305.88;7365825;19;20461;-62
2024/03/09 03:58:25;;;;;;;0.10;0.10;;;;;;;8.78;62.41;99313.66;7365431;19;20018;-61
2024/03/09 04:00:51;;;;;;;0.00;0.00;;;;;;;8.78;62.27;99309.31;7370439;19;20003;-61
2024/03/09 04:03:17;;;;;;;0.10;0.10;;;;;;;8.79;62.63;99299.75;7373373;19;20738;-61
2024/03/09 04:05:44;;;;;;;0.10;0.10;;;;;;;8.80;62.28;99306.63;7371500;19;20026;-61
2024/03/09 04:08:10;;;;;;;0.10;0.10;;;;;;;8.82;62.61;99304.84;7372007;19;20029;-61
2024/03/09 04:10:36;;;;;;;0.15;0.15;;;;;;;8.81;62.88;99290.97;7368696;19;20022;-63
2024/03/09 04:13:02;;;;;;;0.10;0.10;;;;;;;8.82;62.55;99294.44;7366586;19;20010;-61
2024/03/09 04:15:27;;;;;;;0.10;0.10;;;;;;;8.82;62.76;99300.50;7358174;19;20003;-62
2024/03/09 04:17:53;;;;;;;0.10;0.10;;;;;;;8.83;62.87;99285.72;7354585;19;20298;-62
2024/03/09 04:20:18;;;;;;;0.10;0.10;;;;;;;8.83;62.66;99288.31;7370788;19;20010;-61
2024/03/09 04:22:50;;;;;;;0.10;0.10;;;;;;;8.84;62.67;99284.81;7371836;19;20023;-62
2024/03/09 04:25:16;;;;;;;0.10;0.10;;;;;;;8.84;62.38;99283.03;7369546;19;20007;-62
2024/03/09 04:27:42;;;;;;;0.10;0.10;;;;;;;8.85;62.74;99278.69;7370500;19;20017;-61
2024/03/09 04:30:11;;;;;;;0.10;0.10;;;;;;;8.84;62.47;99277.00;7371517;19;20010;-61
2024/03/09 04:32:38;;;;;;;0.10;0.10;;;;;;;8.83;62.67;99283.09;7370420;19;20046;-61
2024/03/09 04:35:05;;;;;;;0.10;0.10;;;;;;;8.86;62.90;99290.78;7354894;19;20021;-62
2024/03/09 04:37:34;;;;;;;0.10;0.10;;;;;;;8.79;62.46;99273.72;7372607;19;20040;-61
2024/03/09 04:40:00;;;;;;;0.10;0.10;;;;;;;8.87;62.95;99276.00;7365844;19;20002;-61
2024/03/09 04:42:26;;;;;;;0.10;0.10;;;;;;;8.86;62.69;99275.16;7367921;19;20282;-61
2024/03/09 04:44:52;;;;;;;0.10;0.10;;;;;;;8.89;62.78;99287.22;7363015;19;20475;-61
2024/03/09 04:47:22;;;;;;;0.10;0.10;;;;;;;8.88;62.62;99291.59;7372743;19;20030;-61
2024/03/09 04:49:48;;;;;;;0.10;0.10;;;;;;;8.73;62.58;99259.19;7371148;19;20486;-62
2024/03/09 04:52:16;;;;;;;0.10;0.10;;;;;;;8.90;63.02;99281.97;7358623;19;20023;-61
2024/03/09 04:54:43;;;;;;;0.10;0.10;;;;;;;8.88;62.88;99289.00;7369094;19;20710;-62
2024/03/09 04:57:17;;;;;;;;;;;;;;;8.93;61.91;99287.06;7370089;19;20418;-62
2024/03/09 04:59:45;;;;;;;0.10;0.10;;;;;;;8.81;62.68;99246.72;7367589;19;19915;-62
2024/03/09 05:02:11;;;;;;;0.10;0.10;;;;;;;8.89;62.62;99269.84;7369572;19;20017;-61
2024/03/09 05:04:37;;;;;;;0.10;0.10;;;;;;;8.89;62.56;99264.66;7367839;19;20003;-62
2024/03/09 05:07:03;;;;;;;0.03;0.03;;;;;;;8.87;63.06;99269.06;7368882;19;20010;-62
2024/03/09 05:09:29;;;;;;;0.10;0.10;;;;;;;8.87;62.40;99256.06;7368155;19;20006;-60
2024/03/09 05:11:55;;;;;;;0.10;0.10;;;;;;;8.85;63.29;99263.06;7366163;19;20040;-62
2024/03/09 05:14:21;;;;;;;0.10;0.10;;;;;;;8.85;63.30;99263.06;7369883;19;20371;-61
2024/03/09 05:16:46;;;;;;;0.10;0.10;;;;;;;8.74;63.07;99237.44;7353545;19;20021;-62
2024/03/09 05:19:12;;;;;;;0.10;0.10;;;;;;;8.88;63.12;99254.31;7368263;19;20362;-62
2024/03/09 05:21:38;;;;;;;0.10;0.10;;;;;;;8.87;63.37;99245.66;7365779;19;20815;-61
2024/03/09 05:24:05;;;;;;;0.10;0.10;;;;;;;8.77;63.00;99237.34;7366281;19;20485;-61
2024/03/09 05:26:32;;;;;;;0.10;0.10;;;;;;;8.87;63.05;99255.19;7368066;19;20007;-61
2024/03/09 05:28:58;;;;;;;0.10;0.10;;;;;;;8.87;62.81;99245.66;7368427;19;20014;-62
2024/03/09 05:31:26;;;;;;;0.10;0.10;;;;;;;8.88;62.88;99236.09;7364660;19;20012;-62
2024/03/09 05:33:53;;;;;;;0.10;0.10;;;;;;;8.83;63.20;99228.44;7368524;19;20447;-61
2024/03/09 05:36:19;;;;;;;0.10;0.10;;;;;;;8.87;62.81;99239.56;7366809;19;20010;-62
2024/03/09 05:38:48;;;;;;;0.10;0.10;;;;;;;8.87;63.27;99224.81;7367987;19;20034;-62
2024/03/09 05:41:13;;;;;;;0.10;0.10;;;;;;;8.86;62.96;99220.50;7361574;19;20070;-62
2024/03/09 05:43:39;;;;;;;0.10;0.10;;;;;;;8.64;62.90;99186.66;7368039;19;20029;-62
2024/03/09 05:46:07;;;;;;;0.10;0.10;;;;;;;8.86;62.84;99217.91;7366086;19;20356;-61
2024/03/09 05:48:33;;;;;;;0.10;0.10;;;;;;;8.86;63.28;99212.69;7367557;19;20090;-62
2024/03/09 05:50:58;;;;;;;0.10;0.10;;;;;;;8.84;63.18;99222.31;7369911;19;20002;-61
2024/03/09 05:53:26;;;;;;;0.10;0.10;;;;;;;8.86;63.13;99215.28;7362737;19;20018;-62
2024/03/09 05:55:52;;;;;;;;;;;;;;;8.90;62.66;99218.63;7368715;19;20013;-61
2024/03/09 05:58:20;;;;;;;0.00;0.00;;;;;;;8.87;62.88;99208.31;7362594;19;20615;-61
2024/03/09 06:00:46;;;;;;;0.10;0.10;;;;;;;8.75;63.23;99200.09;7367033;19;20014;-61
2024/03/09 06:03:12;;;;;;;0.08;0.08;;;;;;;8.84;62.92;99214.53;7370895;19;20033;-62
2024/03/09 06:05:37;;;;;;;0.10;0.10;;;;;;;8.84;63.35;99209.31;7359356;19;20866;-62
2024/03/09 06:08:03;;;;;;;0.10;0.10;;;;;;;8.79;62.96;99199.09;7368304;19;20010;-62
2024/03/09 06:10:29;;;;;;;0.10;0.10;;;;;;;8.83;63.16;99210.22;7368105;19;20010;-62
2024/03/09 06:12:54;;;;;;;0.10;0.10;;;;;;;8.83;63.45;99202.41;7368575;19;20026;-62
2024/03/09 06:15:24;;;;;;;0.10;0.10;;;;;;;8.84;63.35;99209.31;7367409;19;20774;-61
2024/03/09 06:17:57;;;;;;;0.10;0.10;;;;;;;8.83;62.79;99210.22;7365748;19;20010;-62
2024/03/09 06:20:26;;;;;;;0.10;0.10;;;;;;;8.83;62.49;99213.69;7366393;19;20018;-62
2024/03/09 06:22:53;;;;;;;0.10;0.10;;;;;;;8.83;62.63;99208.47;7364341;19;20009;-62
2024/03/09 06:25:22;;;;;;;0.10;0.10;;;;;;;8.71;62.61;99188.09;7366708;19;20086;-61
2024/03/09 06:27:51;;;;;;;0.00;0.00;;;;;;;8.83;62.70;99213.69;7369158;19;20298;-63
2024/03/09 06:30:17;;;;;;;0.10;0.10;;;;;;;8.80;62.38;99219.00;7365855;19;20722;-61
2024/03/09 06:32:49;;;;;;;0.08;0.08;;;;;;;8.75;63.08;99215.72;7363228;19;20022;-62
2024/03/09 06:35:19;;;;;;;0.10;0.10;;;;;;;8.80;62.56;99199.94;7362675;19;20015;-62
2024/03/09 06:37:56;;;;;;;0.10;0.10;;;;;;;8.75;62.76;99213.13;7368721;19;20010;-61
2024/03/09 06:40:22;;;;;;;0.10;0.10;;;;;;;8.80;62.67;99205.13;7363466;19;20468;-61
2024/03/09 06:42:50;;;;;;;0.10;0.10;;;;;;;8.80;63.03;99203.38;7361396;19;20011;-62
2024/03/09 06:45:17;;;;;;;0.10;0.10;;;;;;;8.81;62.70;99219.84;7363139;19;20022;-62
2024/03/09 06:47:43;;;;;;;0.10;0.10;;;;;;;8.81;62.93;99219.84;7365621;19;20455;-61
2024/03/09 06:50:09;;;;;;;0.10;0.10;;;;;;;8.80;62.77;99228.56;7366522;19;20005;-62
2024/03/09 06:52:35;;;;;;;0.10;0.10;;;;;;;8.80;62.70;99219.00;7368267;19;19999;-61
2024/03/09 06:55:00;;;;;;;0.10;0.10;;;;;;;8.64;62.65;99197.06;7370357;19;20001;-62
2024/03/09 06:57:26;;;;;;;0.10;0.10;;;;;;;8.79;62.92;99206.03;7374305;19;20014;-62
2024/03/09 06:59:51;;;;;;;0.10;0.10;;;;;;;8.80;63.05;99218.16;7367249;19;20502;-61
2024/03/09 07:02:18;;;;;;;0.10;0.10;;;;;;;8.80;63.24;99212.94;7371059;19;20825;-62
2024/03/09 07:04:50;;;;;;;0.10;0.10;;;;;;;8.81;63.28;99225.03;7374876;19;20010;-62
2024/03/09 07:07:17;;;;;;;0.10;0.10;;;;;;;8.79;63.30;99212.09;7370700;19;20024;-62
2024/03/09 07:09:49;;;;;;;0.10;0.10;;;;;;;8.82;62.89;99205.94;7374232;19;20085;-61
2024/03/09 07:12:15;;;;;;;0.10;0.10;;;;;;;8.81;63.41;99207.66;7372147;19;20002;-62
2024/03/09 07:14:40;;;;;;;0.10;0.10;;;;;;;8.80;63.21;99216.38;7366908;19;20005;-61
2024/03/09 07:17:06;;;;;;;0.10;0.10;;;;;;;8.82;63.03;99211.16;7371311;19;19999;-61
2024/03/09 07:19:31;;;;;;;0.10;0.10;;;;;;;8.82;63.18;99211.16;7374325;19;20062;-61
2024/03/09 07:21:56;;;;;;;0.10;0.10;;;;;;;8.82;62.98;99204.19;7365759;19;20014;-61
2024/03/09 07:24:22;;;;;;;0.10;0.10;;;;;;;8.82;63.13;99200.72;7366713;19;20960;-61
2024/03/09 07:26:48;;;;;;;0.10;0.10;;;;;;;8.82;62.99;99221.56;7373231;19;20022;-61
2024/03/09 07:29:13;;;;;;;0.10;0.10;;;;;;;8.80;63.45;99197.31;7371064;19;20562;-62
2024/03/09 07:31:39;;;;;;;0.10;0.10;;;;;;;8.82;63.39;99216.34;7372459;19;20006;-62
2024/03/09 07:34:04;;;;;;;0.10;0.10;;;;;;;8.77;63.10;99207.88;7365406;19;19997;-61
2024/03/09 07:36:30;;;;;;;0.10;0.10;;;;;;;8.83;63.03;99199.81;7371964;19;20360;-61
2024/03/09 07:38:55;;;;;;;0.10;0.10;;;;;;;8.84;63.40;99204.09;7366977;19;19991;-61
2024/03/09 07:41:21;;;;;;;0.10;0.10;;;;;;;8.83;63.09;99200.66;7365089;19;19998;-61
2024/03/09 07:43:47;;;;;;;0.00;0.00;;;;;;;8.84;63.00;99206.72;7362262;19;20055;-61
2024/03/09 07:46:13;;;;;;;0.10;0.10;;;;;;;8.83;63.25;99200.66;7372135;19;20014;-61
2024/03/09 07:48:39;;;;;;;0.10;0.10;;;;;;;8.84;63.49;99211.91;7368918;19;20739;-61
2024/03/09 07:51:08;;;;;;;0.00;0.00;;;;;;;8.86;63.52;99214.44;7372486;19;20029;-62
2024/03/09 07:53:34;;;;;;;0.05;0.05;;;;;;;8.87;63.02;99222.22;7371213;19;20367;-61
2024/03/09 07:55:59;;;;;;;0.10;0.10;;;;;;;8.87;63.51;99218.75;7371621;19;20513;-61
2024/03/09 07:58:25;;;;;;;0.10;0.10;;;;;;;8.87;63.33;99219.63;7367377;19;20003;-61
2024/03/09 08:00:50;;;;;;;0.10;0.10;;;;;;;8.88;63.66;99223.06;7368130;19;20018;-62
2024/03/09 08:03:17;;;;;;;0.00;0.00;;;;;;;8.88;63.31;99221.31;7374808;19;20044;-61
2024/03/09 08:05:43;;;;;;;0.10;0.10;;;;;;;8.90;63.62;99213.44;7361207;19;20339;-62
2024/03/09 08:08:09;;;;;;;0.13;0.13;;;;;;;8.79;63.53;99182.63;7371251;19;20536;-62
2024/03/09 08:10:39;;;;;;;0.10;0.10;;;;;;;8.79;63.38;99180.03;7369905;19;19999;-61
2024/03/09 08:13:04;;;;;;;0.10;0.10;;;;;;;8.92;63.60;99195.97;7372512;19;20021;-62
2024/03/09 08:15:29;;;;;;;0.10;0.10;;;;;;;8.87;63.68;99188.38;7368129;19;20762;-63
2024/03/09 08:17:56;;;;;;;0.10;0.10;;;;;;;8.95;63.45;99201.06;7371648;19;20002;-61
2024/03/09 08:20:22;;;;;;;0.10;0.10;;;;;;;8.96;62.83;99214.03;7370787;19;19999;-61
2024/03/09 08:22:49;;;;;;;0.03;0.03;;;;;;;8.94;62.73;99208.03;7369519;19;20463;-62
2024/03/09 08:25:16;;;;;;;0.10;0.10;;;;;;;8.93;62.99;99203.75;7366973;19;20621;-62
2024/03/09 08:27:44;;;;;;;0.08;0.08;;;;;;;8.98;62.43;99190.56;7371601;19;20098;-61
2024/03/09 08:30:19;;;;;;;0.10;0.10;;;;;;;9.00;62.65;99194.78;7360827;19;20061;-61
2024/03/09 08:32:52;;;;;;;0.10;0.10;;;;;;;9.00;62.40;99193.94;7366761;19;20022;-62
2024/03/09 08:35:19;;;;;;;0.10;0.10;;;;;;;8.98;62.46;99180.97;7366862;19;20605;-62
2024/03/09 08:37:45;;;;;;;0.10;0.10;;;;;;;8.98;62.60;99178.38;7371185;19;20581;-62
2024/03/09 08:40:19;;;;;;;0.10;0.10;;;;;;;9.00;62.83;99170.50;7369239;19;20011;-61
2024/03/09 08:42:48;;;;;;;0.10;0.10;;;;;;;8.95;62.41;99160.25;7367736;19;20774;-62
2024/03/09 08:45:14;;;;;;;0.10;0.10;;;;;;;9.02;62.73;99174.75;7368852;19;20011;-62
2024/03/09 08:47:41;;;;;;;0.10;0.10;;;;;;;9.02;62.42;99174.75;7368207;19;20006;-61
2024/03/09 08:50:10;;;;;;;0.10;0.10;;;;;;;9.03;62.33;99173.84;7366844;19;20933;-61
2024/03/09 08:52:38;;;;;;;0.10;0.10;;;;;;;9.04;62.29;99175.50;7367832;19;20003;-61
2024/03/09 08:55:10;;;;;;;0.10;0.10;;;;;;;9.05;62.46;99166.78;7368462;19;20006;-61
2024/03/09 08:57:39;;;;;;;0.10;0.10;;;;;;;9.08;62.46;99169.28;7366642;19;20073;-61
2024/03/09 09:00:06;;;;;;;0.00;0.00;;;;;;;9.07;62.32;99175.41;7369918;19;20791;-62
2024/03/09 09:02:32;;;;;;;0.10;0.10;;;;;;;9.07;62.39;99180.63;7367475;19;20554;-61
2024/03/09 09:04:58;;;;;;;0.10;0.10;;;;;;;9.07;62.14;99170.19;7366438;19;20460;-61
2024/03/09 09:07:24;;;;;;;0.10;0.10;;;;;;;9.08;62.43;99156.25;7366097;19;20025;-62
2024/03/09 09:09:50;;;;;;;0.10;0.10;;;;;;;9.08;62.78;99165.84;7367327;19;20681;-62
2024/03/09 09:12:19;;;;;;;0.10;0.10;;;;;;;9.10;62.67;99164.84;7370267;19;20045;-62
2024/03/09 09:14:45;;;;;;;0.10;0.10;;;;;;;9.10;62.70;99164.84;7366755;19;20014;-62
2024/03/09 09:17:11;;;;;;;0.10;0.10;;;;;;;9.12;62.39;99159.56;7370907;19;20023;-62
2024/03/09 09:19:37;;;;;;;0.10;0.10;;;;;;;9.12;62.60;99162.16;7368216;19;19995;-62
2024/03/09 09:22:04;;;;;;;0.10;0.10;;;;;;;9.13;62.74;99155.22;7369060;19;20006;-61
2024/03/09 09:24:29;;;;;;;0.10;0.10;;;;;;;9.12;62.39;99156.13;7363645;19;20007;-62
2024/03/09 09:26:55;;;;;;;0.10;0.10;;;;;;;9.15;62.50;99145.59;7359013;19;20896;-61
2024/03/09 09:29:20;;;;;;;0.10;0.10;;;;;;;9.17;62.57;99159.38;7359319;19;19999;-62
2024/03/09 09:31:45;;;;;;;0.10;0.10;;;;;;;9.17;62.38;99160.22;7367716;19;20062;-61
2024/03/09 09:34:12;;;;;;;0.10;0.10;;;;;;;9.19;62.35;99152.38;7367596;19;20011;-61
2024/03/09 09:36:38;;;;;;;0.10;0.10;;;;;;;9.20;62.39;99149.69;7364261;19;20031;-62
2024/03/09 09:39:03;;;;;;;0.10;0.10;;;;;;;9.19;62.55;99141.94;7363709;19;20003;-61
2024/03/09 09:41:29;;;;;;;0.10;0.10;;;;;;;9.25;62.37;99157.31;7367719;19;20588;-62
2024/03/09 09:43:58;;;;;;;0.10;0.10;;;;;;;9.28;62.30;99144.16;7364332;19;20023;-61
2024/03/09 09:46:29;;;;;;;0.10;0.10;;;;;;;9.30;62.49;99150.16;7366966;19;19994;-62
2024/03/09 09:48:55;;;;;;;0.10;0.10;;;;;;;9.28;62.59;99147.63;7369300;19;20002;-62
2024/03/09 09:51:25;;;;;;;0.10;0.10;;;;;;;9.23;62.22;99122.69;7364974;19;20758;-61
2024/03/09 09:53:53;;;;;;;0.10;0.10;;;;;;;9.31;61.91;99136.19;7364965;19;20034;-62
2024/03/09 09:56:21;;;;;;;0.10;0.10;;;;;;;9.33;62.42;99150.03;7360653;19;20022;-61
2024/03/09 09:58:49;;;;;;;0.10;0.10;;;;;;;9.37;61.96;99141.16;7367170;19;20007;-61
2024/03/09 10:01:20;;;;;;;0.10;0.10;;;;;;;9.38;62.34;99142.00;7365235;19;19998;-62
2024/03/09 10:03:46;;;;;;;0.10;0.10;;;;;;;9.34;62.36;99130.88;7365062;19;20027;-62
2024/03/09 10:06:21;;;;;;;0.10;0.10;;;;;;;9.43;62.29;99134.81;7363517;19;20645;-62
2024/03/09 10:08:50;;;;;;;0.10;0.10;;;;;;;9.44;62.27;99132.19;7364003;19;19999;-61
2024/03/09 10:11:17;;;;;;;0.10;0.10;;;;;;;9.42;61.99;99123.56;7338673;19;22076;-63
2024/03/09 10:13:46;;;;;;;0.00;0.00;;;;;;;9.44;62.51;99123.50;7365478;19;20120;-62
2024/03/09 10:16:15;;;;;;;0.10;0.10;;;;;;;9.47;62.52;99134.63;7359505;19;20062;-61
2024/03/09 10:18:41;;;;;;;0.10;0.10;;;;;;;9.36;62.44;99103.00;7366587;19;20002;-61
2024/03/09 10:21:09;;;;;;;0.00;0.00;;;;;;;9.50;62.25;99131.91;7364916;19;20010;-62
2024/03/09 10:23:34;;;;;;;0.10;0.10;;;;;;;9.51;62.00;99132.75;7365277;19;20504;-62
2024/03/09 10:26:07;;;;;;;0.10;0.10;;;;;;;9.53;62.20;99137.00;7358402;19;20074;-62
2024/03/09 10:28:39;;;;;;;0.08;0.08;;;;;;;9.51;62.01;99128.38;7363133;19;20013;-62
2024/03/09 10:31:06;;;;;;;0.10;0.10;;;;;;;9.48;62.38;99125.03;7359826;19;20388;-62
2024/03/09 10:33:35;;;;;;;0.10;0.10;;;;;;;9.53;62.28;99125.69;7362509;19;20018;-62
2024/03/09 10:36:04;;;;;;;0.10;0.10;;;;;;;9.49;62.49;99119.78;7361861;19;20007;-61
2024/03/09 10:38:30;;;;;;;0.10;0.10;;;;;;;9.53;62.41;99116.16;7364315;19;20002;-62
2024/03/09 10:40:57;;;;;;;0.10;0.10;;;;;;;9.54;62.74;99123.03;7358628;19;20344;-63
2024/03/09 10:43:23;;;;;;;0.10;0.10;;;;;;;9.49;62.97;99114.59;7363507;19;20078;-62
2024/03/09 10:45:55;;;;;;;0.10;0.10;;;;;;;9.59;62.79;99115.03;7362727;19;20941;-62
2024/03/09 10:48:24;;;;;;;0.10;0.10;;;;;;;9.43;62.79;99099.22;7358287;19;20058;-62
2024/03/09 10:51:07;;;;;;;0.10;0.10;;;;;;;9.59;62.66;99123.69;7357328;19;20515;-62
2024/03/09 10:53:52;;;;;;;0.10;0.10;;;;;;;9.59;62.33;99108.06;7364543;19;20017;-63
2024/03/09 10:56:18;;;;;;;0.10;0.10;;;;;;;9.58;62.61;99103.75;7362766;19;20098;-61
2024/03/09 10:58:45;;;;;;;0.10;0.10;;;;;;;9.60;62.68;99107.13;7360894;19;20077;-61
2024/03/09 11:01:11;;;;;;;0.10;0.10;;;;;;;9.60;62.38;99114.09;7362498;19;20019;-61
2024/03/09 11:03:38;;;;;;;0.10;0.10;;;;;;;9.61;62.46;99103.59;7364393;19;20094;-61
2024/03/09 11:06:03;;;;;;;0.00;0.00;;;;;;;9.59;62.20;99104.59;7360903;19;20011;-63
2024/03/09 11:08:32;;;;;;;0.20;0.20;;;;;;;9.59;62.29;99102.00;7363366;19;20006;-61
2024/03/09 11:10:58;;;;;;;0.15;0.15;;;;;;;9.60;62.58;99095.88;7362495;19;20447;-62
2024/03/09 11:13:24;;;;;;;0.10;0.10;;;;;;;9.59;62.41;99095.03;7358089;19;20014;-61
2024/03/09 11:15:51;;;;;;;0.10;0.10;;;;;;;9.59;62.71;99110.66;7360837;19;20338;-62
2024/03/09 11:18:21;;;;;;;0.10;0.10;;;;;;;9.59;62.23;99100.25;7355033;19;20006;-62
2024/03/09 11:20:59;;;;;;;0.10;0.10;;;;;;;9.60;62.26;99086.28;7359189;19;20020;-61
2024/03/09 11:23:25;;;;;;;0.10;0.10;;;;;;;9.60;62.36;99096.72;7358352;19;20514;-62
2024/03/09 11:25:53;;;;;;;0.10;0.10;;;;;;;9.60;62.21;99091.50;7361552;19;20003;-62
2024/03/09 11:28:27;;;;;;;0.10;0.10;;;;;;;9.61;62.51;99082.75;7360270;19;20345;-61
2024/03/09 11:31:10;;;;;;;0.10;0.10;;;;;;;9.60;62.66;99091.50;7360286;19;20010;-62
2024/03/09 11:33:50;;;;;;;0.10;0.10;;;;;;;9.61;62.46;99087.97;7359763;19;20034;-61
2024/03/09 11:36:51;;;;;;;0.10;0.10;;;;;;;9.64;62.29;99091.38;7356156;19;20029;-63
2024/03/09 11:39:33;;;;;;;0.10;0.10;;;;;;;9.62;62.43;99079.22;7360328;19;21035;-61
2024/03/09 11:42:00;;;;;;;0.10;0.10;;;;;;;9.59;62.61;99088.97;7361098;19;20006;-62
2024/03/09 11:44:33;;;;;;;0.10;0.10;;;;;;;9.60;62.65;99091.50;7366733;19;20037;-61